ARE4026 SKBO-SKRG
Flight info
| Callsign | ARE4026 |
|---|---|
| Flight time | 0h 26m |
| Altitude | 22000 |
| Route | TOBKI1S VASIL W36 NIRSO NIRSO3C |
| Aircraft | A320/M-SDE3FGHIRWY/LB1 |
Departure
| Time | 2026-05-05 02:49 |
|---|---|
| Airport | El Dorado International Airport (SKBO) |
Arrival
| Time | 2026-05-05 03:16 |
|---|---|
| Airport | Jose Maria Córdova International Airport (SKRG) |
| Time | Latitude | Longitude | Altitude | Speed | Heading |
|---|---|---|---|---|---|
| 2026-05-05 02:14 | 4.70002 | -74.14334 | 8373 ft | 0 kts | 37° |
| 2026-05-05 02:36 | 4.70001 | -74.14335 | 8373 ft | 1 kts | 37° |
| 2026-05-05 02:36 | 4.69983 | -74.14349 | 8370 ft | 4 kts | 37° |
| 2026-05-05 02:36 | 4.69965 | -74.14363 | 8373 ft | 3 kts | 37° |
| 2026-05-05 02:37 | 4.69945 | -74.14372 | 8373 ft | 4 kts | 338° |
| 2026-05-05 02:37 | 4.69932 | -74.14362 | 8373 ft | 3 kts | 307° |
| 2026-05-05 02:37 | 4.69948 | -74.14383 | 8372 ft | 4 kts | 307° |
| 2026-05-05 02:37 | 4.69960 | -74.14400 | 8373 ft | 0 kts | 307° |
| 2026-05-05 02:39 | 4.69960 | -74.14401 | 8373 ft | 0 kts | 307° |
| 2026-05-05 02:40 | 4.69971 | -74.14414 | 8371 ft | 6 kts | 308° |
| 2026-05-05 02:40 | 4.69997 | -74.14448 | 8373 ft | 6 kts | 308° |
| 2026-05-05 02:40 | 4.70033 | -74.14496 | 8373 ft | 10 kts | 307° |
| 2026-05-05 02:40 | 4.70077 | -74.14561 | 8373 ft | 13 kts | 296° |
| 2026-05-05 02:41 | 4.70124 | -74.14636 | 8373 ft | 13 kts | 320° |
| 2026-05-05 02:41 | 4.70159 | -74.14712 | 8373 ft | 13 kts | 242° |
| 2026-05-05 02:41 | 4.70084 | -74.14773 | 8371 ft | 14 kts | 217° |
| 2026-05-05 02:41 | 4.70001 | -74.14836 | 8373 ft | 15 kts | 217° |
| 2026-05-05 02:42 | 4.69917 | -74.14901 | 8373 ft | 16 kts | 218° |
| 2026-05-05 02:42 | 4.69860 | -74.14957 | 8373 ft | 11 kts | 254° |
| 2026-05-05 02:42 | 4.69894 | -74.15026 | 8373 ft | 12 kts | 307° |
| 2026-05-05 02:42 | 4.69946 | -74.15095 | 8372 ft | 13 kts | 307° |
| 2026-05-05 02:43 | 4.70000 | -74.15165 | 8371 ft | 12 kts | 307° |
| 2026-05-05 02:43 | 4.70050 | -74.15232 | 8373 ft | 12 kts | 307° |
| 2026-05-05 02:43 | 4.70099 | -74.15297 | 8373 ft | 12 kts | 307° |
| 2026-05-05 02:43 | 4.70148 | -74.15362 | 8374 ft | 12 kts | 307° |
| 2026-05-05 02:44 | 4.70205 | -74.15437 | 8373 ft | 15 kts | 307° |
| 2026-05-05 02:44 | 4.70271 | -74.15523 | 8374 ft | 16 kts | 307° |
| 2026-05-05 02:44 | 4.70338 | -74.15614 | 8373 ft | 17 kts | 306° |
| 2026-05-05 02:44 | 4.70409 | -74.15708 | 8373 ft | 17 kts | 307° |
| 2026-05-05 02:45 | 4.70484 | -74.15807 | 8371 ft | 18 kts | 307° |
| 2026-05-05 02:45 | 4.70563 | -74.15909 | 8373 ft | 19 kts | 307° |
| 2026-05-05 02:45 | 4.70643 | -74.16017 | 8372 ft | 20 kts | 307° |
| 2026-05-05 02:45 | 4.70727 | -74.16127 | 8374 ft | 20 kts | 307° |
| 2026-05-05 02:46 | 4.70814 | -74.16241 | 8374 ft | 21 kts | 307° |
| 2026-05-05 02:46 | 4.70903 | -74.16359 | 8374 ft | 22 kts | 307° |
| 2026-05-05 02:46 | 4.70996 | -74.16481 | 8373 ft | 22 kts | 307° |
| 2026-05-05 02:46 | 4.71091 | -74.16606 | 8372 ft | 23 kts | 307° |
| 2026-05-05 02:47 | 4.71179 | -74.16723 | 8372 ft | 17 kts | 307° |
| 2026-05-05 02:47 | 4.71243 | -74.16809 | 8373 ft | 11 kts | 302° |
| 2026-05-05 02:47 | 4.71235 | -74.16867 | 8371 ft | 7 kts | 222° |
| 2026-05-05 02:47 | 4.71202 | -74.16890 | 8371 ft | 6 kts | 211° |
| 2026-05-05 02:48 | 4.71146 | -74.16896 | 8373 ft | 9 kts | 173° |
| 2026-05-05 02:48 | 4.71091 | -74.16889 | 8373 ft | 7 kts | 173° |
| 2026-05-05 02:48 | 4.71042 | -74.16889 | 8373 ft | 9 kts | 163° |
| 2026-05-05 02:48 | 4.70948 | -74.16775 | 8373 ft | 42 kts | 127° |
| 2026-05-05 02:49 | 4.70628 | -74.16352 | 8375 ft | 107 kts | 127° |
| 2026-05-05 02:49 | 4.70062 | -74.15602 | 8373 ft | 161 kts | 127° |
| 2026-05-05 02:49 | 4.69298 | -74.14597 | 8509 ft | 192 kts | 126° |
| 2026-05-05 02:49 | 4.68471 | -74.13570 | 9190 ft | 193 kts | 139° |
| 2026-05-05 02:50 | 4.67233 | -74.13107 | 9812 ft | 199 kts | 181° |
| 2026-05-05 02:50 | 4.65922 | -74.13686 | 10054 ft | 222 kts | 223° |
| 2026-05-05 02:50 | 4.64907 | -74.14957 | 10235 ft | 245 kts | 235° |
| 2026-05-05 02:50 | 4.64000 | -74.16433 | 10761 ft | 251 kts | 238° |
| 2026-05-05 02:51 | 4.63121 | -74.17961 | 11379 ft | 254 kts | 238° |
| 2026-05-05 02:51 | 4.62231 | -74.19502 | 12009 ft | 257 kts | 238° |
| 2026-05-05 02:51 | 4.61465 | -74.21122 | 12581 ft | 264 kts | 255° |
| 2026-05-05 02:51 | 4.61086 | -74.22998 | 12821 ft | 286 kts | 258° |
| 2026-05-05 02:52 | 4.60707 | -74.25038 | 13020 ft | 310 kts | 259° |
| 2026-05-05 02:52 | 4.60313 | -74.27240 | 13203 ft | 333 kts | 262° |
| 2026-05-05 02:52 | 4.60059 | -74.29629 | 13352 ft | 355 kts | 265° |
| 2026-05-05 02:52 | 4.59906 | -74.32119 | 13811 ft | 366 kts | 267° |
| 2026-05-05 02:53 | 4.59800 | -74.34693 | 14344 ft | 372 kts | 268° |
| 2026-05-05 02:53 | 4.59704 | -74.37313 | 14841 ft | 377 kts | 268° |
| 2026-05-05 02:53 | 4.59628 | -74.39951 | 15385 ft | 381 kts | 272° |
| 2026-05-05 02:53 | 4.60101 | -74.42568 | 15916 ft | 384 kts | 286° |
| 2026-05-05 02:54 | 4.60819 | -74.45161 | 16459 ft | 388 kts | 287° |
| 2026-05-05 02:54 | 4.61573 | -74.47770 | 17013 ft | 391 kts | 287° |
| 2026-05-05 02:54 | 4.62348 | -74.50399 | 17486 ft | 395 kts | 287° |
| 2026-05-05 02:54 | 4.63120 | -74.53025 | 18020 ft | 399 kts | 287° |
| 2026-05-05 02:55 | 4.63899 | -74.55700 | 18546 ft | 402 kts | 287° |
| 2026-05-05 02:55 | 4.64924 | -74.58346 | 19029 ft | 404 kts | 300° |
| 2026-05-05 02:55 | 4.66471 | -74.60650 | 19509 ft | 404 kts | 313° |
| 2026-05-05 02:55 | 4.68508 | -74.62572 | 19993 ft | 402 kts | 326° |
| 2026-05-05 02:56 | 4.70920 | -74.63986 | 20491 ft | 401 kts | 339° |
| 2026-05-05 02:56 | 4.73570 | -74.64821 | 20953 ft | 399 kts | 351° |
| 2026-05-05 02:56 | 4.76302 | -74.65407 | 21473 ft | 402 kts | 351° |
| 2026-05-05 02:56 | 4.79051 | -74.65996 | 21960 ft | 405 kts | 350° |
| 2026-05-05 02:57 | 4.81808 | -74.66606 | 22136 ft | 407 kts | 347° |
| 2026-05-05 02:57 | 4.84443 | -74.67586 | 22176 ft | 401 kts | 336° |
| 2026-05-05 02:57 | 4.86821 | -74.69052 | 22171 ft | 402 kts | 325° |
| 2026-05-05 02:57 | 4.89012 | -74.70779 | 22171 ft | 402 kts | 324° |
| 2026-05-05 02:58 | 4.91209 | -74.72509 | 22172 ft | 401 kts | 324° |
| 2026-05-05 02:58 | 4.93255 | -74.74365 | 22137 ft | 404 kts | 314° |
| 2026-05-05 02:58 | 4.94965 | -74.76605 | 22120 ft | 406 kts | 303° |
| 2026-05-05 02:58 | 4.96285 | -74.79126 | 22110 ft | 408 kts | 297° |
| 2026-05-05 02:59 | 4.97525 | -74.81682 | 22095 ft | 408 kts | 297° |
| 2026-05-05 02:59 | 4.98770 | -74.84242 | 22080 ft | 408 kts | 297° |
| 2026-05-05 02:59 | 5.00013 | -74.86795 | 22067 ft | 408 kts | 297° |
| 2026-05-05 02:59 | 5.01262 | -74.89362 | 22051 ft | 408 kts | 297° |
| 2026-05-05 03:00 | 5.02506 | -74.91920 | 22041 ft | 408 kts | 297° |
| 2026-05-05 03:00 | 5.03750 | -74.94475 | 22038 ft | 408 kts | 297° |
| 2026-05-05 03:00 | 5.04994 | -74.97030 | 22037 ft | 408 kts | 298° |
| 2026-05-05 03:00 | 5.06237 | -74.99585 | 22038 ft | 407 kts | 298° |
| 2026-05-05 03:01 | 5.07479 | -75.02140 | 22164 ft | 407 kts | 297° |
| 2026-05-05 03:01 | 5.08725 | -75.04699 | 22164 ft | 407 kts | 297° |
| 2026-05-05 03:01 | 5.09969 | -75.07251 | 22189 ft | 407 kts | 298° |
| 2026-05-05 03:01 | 5.11216 | -75.09807 | 22186 ft | 407 kts | 298° |
| 2026-05-05 03:02 | 5.12458 | -75.12356 | 22185 ft | 408 kts | 297° |
| 2026-05-05 03:02 | 5.13701 | -75.14915 | 22185 ft | 408 kts | 297° |
| 2026-05-05 03:02 | 5.14958 | -75.17462 | 22184 ft | 407 kts | 301° |
| 2026-05-05 03:02 | 5.16499 | -75.19786 | 22164 ft | 405 kts | 311° |
| 2026-05-05 03:03 | 5.18375 | -75.21932 | 22178 ft | 403 kts | 314° |
| 2026-05-05 03:03 | 5.20237 | -75.24031 | 22180 ft | 403 kts | 313° |
| 2026-05-05 03:03 | 5.22077 | -75.26113 | 22182 ft | 403 kts | 313° |
| 2026-05-05 03:03 | 5.23934 | -75.28216 | 22120 ft | 401 kts | 313° |
| 2026-05-05 03:04 | 5.25761 | -75.30289 | 21869 ft | 391 kts | 313° |
| 2026-05-05 03:04 | 5.27547 | -75.32316 | 21627 ft | 385 kts | 314° |
| 2026-05-05 03:04 | 5.29318 | -75.34319 | 21383 ft | 382 kts | 314° |
| 2026-05-05 03:04 | 5.31086 | -75.36305 | 21107 ft | 380 kts | 316° |
| 2026-05-05 03:05 | 5.33073 | -75.38022 | 20868 ft | 375 kts | 328° |
| 2026-05-05 03:05 | 5.35357 | -75.39248 | 20632 ft | 369 kts | 341° |
| 2026-05-05 03:05 | 5.37795 | -75.39943 | 20253 ft | 362 kts | 353° |
| 2026-05-05 03:05 | 5.40288 | -75.40153 | 19801 ft | 359 kts | 359° |
| 2026-05-05 03:06 | 5.42778 | -75.40285 | 19351 ft | 358 kts | 359° |
| 2026-05-05 03:06 | 5.45267 | -75.40420 | 18894 ft | 358 kts | 359° |
| 2026-05-05 03:06 | 5.47744 | -75.40556 | 18425 ft | 357 kts | 359° |
| 2026-05-05 03:06 | 5.50247 | -75.40696 | 17612 ft | 365 kts | 359° |
| 2026-05-05 03:07 | 5.52794 | -75.40838 | 17092 ft | 365 kts | 359° |
| 2026-05-05 03:07 | 5.55325 | -75.40977 | 16631 ft | 364 kts | 359° |
| 2026-05-05 03:07 | 5.57851 | -75.41117 | 16189 ft | 362 kts | 359° |
| 2026-05-05 03:07 | 5.60324 | -75.41252 | 15732 ft | 361 kts | 359° |
| 2026-05-05 03:08 | 5.62824 | -75.41393 | 15288 ft | 359 kts | 359° |
| 2026-05-05 03:08 | 5.65316 | -75.41534 | 14839 ft | 358 kts | 359° |
| 2026-05-05 03:08 | 5.67797 | -75.41672 | 14394 ft | 356 kts | 359° |
| 2026-05-05 03:08 | 5.70260 | -75.41808 | 14183 ft | 349 kts | 359° |
| 2026-05-05 03:09 | 5.72644 | -75.41942 | 14066 ft | 337 kts | 359° |
| 2026-05-05 03:09 | 5.74945 | -75.42070 | 13948 ft | 326 kts | 360° |
| 2026-05-05 03:09 | 5.77175 | -75.42194 | 13821 ft | 314 kts | 360° |
| 2026-05-05 03:09 | 5.79294 | -75.42275 | 13682 ft | 294 kts | 2° |
| 2026-05-05 03:10 | 5.81299 | -75.42292 | 13351 ft | 284 kts | 3° |
| 2026-05-05 03:10 | 5.83259 | -75.42279 | 12887 ft | 281 kts | 4° |
| 2026-05-05 03:10 | 5.85234 | -75.42257 | 12236 ft | 285 kts | 4° |
| 2026-05-05 03:10 | 5.87173 | -75.42240 | 12011 ft | 271 kts | 3° |
| 2026-05-05 03:11 | 5.89032 | -75.42232 | 11761 ft | 264 kts | 3° |
| 2026-05-05 03:11 | 5.90844 | -75.42232 | 11413 ft | 257 kts | 2° |
| 2026-05-05 03:11 | 5.92605 | -75.42235 | 11103 ft | 249 kts | 2° |
| 2026-05-05 03:11 | 5.94309 | -75.42241 | 10797 ft | 241 kts | 2° |
| 2026-05-05 03:12 | 5.95941 | -75.42246 | 10529 ft | 235 kts | 2° |
| 2026-05-05 03:12 | 5.97567 | -75.42251 | 10285 ft | 232 kts | 2° |
| 2026-05-05 03:12 | 5.99173 | -75.42253 | 9962 ft | 229 kts | 4° |
| 2026-05-05 03:12 | 6.00734 | -75.42226 | 9726 ft | 221 kts | 3° |
| 2026-05-05 03:13 | 6.02254 | -75.42222 | 9466 ft | 216 kts | 2° |
| 2026-05-05 03:13 | 6.03740 | -75.42230 | 9206 ft | 212 kts | 2° |
| 2026-05-05 03:13 | 6.05199 | -75.42239 | 8943 ft | 207 kts | 1° |
| 2026-05-05 03:13 | 6.06597 | -75.42249 | 8698 ft | 194 kts | 2° |
| 2026-05-05 03:14 | 6.07913 | -75.42258 | 8460 ft | 184 kts | 2° |
| 2026-05-05 03:14 | 6.09160 | -75.42263 | 8225 ft | 176 kts | 2° |
| 2026-05-05 03:14 | 6.10372 | -75.42263 | 7955 ft | 172 kts | 2° |
| 2026-05-05 03:14 | 6.11565 | -75.42266 | 7686 ft | 171 kts | 1° |
| 2026-05-05 03:15 | 6.12751 | -75.42285 | 7470 ft | 170 kts | 0° |
| 2026-05-05 03:15 | 6.13934 | -75.42288 | 7201 ft | 170 kts | 360° |
| 2026-05-05 03:15 | 6.15112 | -75.42300 | 6990 ft | 169 kts | 0° |
| 2026-05-05 03:15 | 6.16123 | -75.42307 | 6979 ft | 106 kts | 359° |
| 2026-05-05 03:16 | 6.16617 | -75.42312 | 6992 ft | 55 kts | 359° |
| 2026-05-05 03:16 | 6.16891 | -75.42313 | 7004 ft | 19 kts | 355° |
| 2026-05-05 03:16 | 6.17003 | -75.42349 | 7013 ft | 15 kts | 332° |
| 2026-05-05 03:16 | 6.17084 | -75.42395 | 7014 ft | 11 kts | 328° |
| 2026-05-05 03:17 | 6.17141 | -75.42434 | 7013 ft | 8 kts | 322° |
| 2026-05-05 03:17 | 6.17176 | -75.42466 | 7015 ft | 6 kts | 306° |
| 2026-05-05 03:17 | 6.17185 | -75.42530 | 7013 ft | 12 kts | 270° |
| 2026-05-05 03:17 | 6.17180 | -75.42597 | 7019 ft | 6 kts | 247° |
| 2026-05-05 03:18 | 6.17168 | -75.42612 | 7019 ft | 4 kts | 224° |
| 2026-05-05 03:18 | 6.17126 | -75.42619 | 7017 ft | 8 kts | 175° |
| 2026-05-05 03:18 | 6.17090 | -75.42634 | 7019 ft | 4 kts | 256° |
| 2026-05-05 03:18 | 6.17093 | -75.42653 | 7018 ft | 4 kts | 281° |
| 2026-05-05 03:19 | 6.17100 | -75.42686 | 7020 ft | 0 kts | 281° |
| 2026-05-05 03:20 | 6.12875 | -75.42287 | 7444 ft | 83 kts | 1° |
| 2026-05-05 03:21 | 6.14944 | -75.42299 | 7022 ft | 127 kts | 0° |
| 2026-05-05 03:21 | 6.13942 | -75.42288 | 7199 ft | 120 kts | 360° |
| 2026-05-05 03:21 | 6.14978 | -75.42299 | 7014 ft | 123 kts | 0° |
| 2026-05-05 03:21 | 6.15083 | -75.42300 | 6996 ft | 117 kts | 0° |
| 2026-05-05 03:22 | 6.14110 | -75.42290 | 7171 ft | 116 kts | 360° |
| 2026-05-05 03:22 | 6.15164 | -75.42300 | 6986 ft | 123 kts | 0° |
| 2026-05-05 03:22 | 6.14553 | -75.42296 | 7094 ft | 115 kts | 0° |
| 2026-05-05 03:23 | 6.15262 | -75.42300 | 6983 ft | 120 kts | 0° |
| 2026-05-05 03:23 | 6.14844 | -75.42298 | 7036 ft | 107 kts | 0° |
| 2026-05-05 03:23 | 6.12778 | -75.42285 | 7461 ft | 106 kts | 0° |
| 2026-05-05 03:23 | 6.14203 | -75.42292 | 7149 ft | 120 kts | 0° |
| 2026-05-05 03:24 | 6.15564 | -75.42302 | 6980 ft | 117 kts | 359° |
| 2026-05-05 03:24 | 6.14139 | -75.42291 | 7158 ft | 114 kts | 0° |
| 2026-05-05 03:24 | 6.15499 | -75.42300 | 6982 ft | 116 kts | 359° |